Currently 65°F in Beaumont, California, USA
65°F
78°F / 58°F
1 mph S
0.00"
Tuesday, September 17, 2019 8:01 PM PDT

Beaumont, California Weather Summary
Last 36 Hours

Temperature Winds Hourly Humidity Dewpoint
Time Report Norm Report Norm Max Gusts Precip. Rpt. Norm Rpt. Norm Pressure
1Tue 08:01 PM  65.1°F  72°F  1 mph S  4 mph  7 mph  0.00"  54%  51%  47°F  53°F  29.88"
Tue 08:00 PM  65.3°F  72°F  2 mph S  4 mph  9 mph  0.00"  54%  51%  48°F  53°F  29.88"
Tue 07:00 PM  68.9°F  74°F  calm  3 mph  8 mph  0.00"  45%  47%  46°F  52°F  29.87"
Tue 06:00 PM  73.4°F  78°F  3 mph SW  3 mph  10 mph  0.00"  30%  42%  39°F  52°F  29.87"
Tue 05:00 PM  77.0°F  80°F  2 mph SW  4 mph  12 mph  0.00"  25%  38%  37°F  51°F  29.87"
Tue 04:00 PM  77.5°F  81°F  4 mph S  4 mph  15 mph  0.00"  21%  36%  33°F  51°F  29.88"
2Tue 03:22 PM  78.4°F  82°F  4 mph SW  4 mph  12 mph  ----  19%  36%  31°F  51°F  29.89"
Tue 03:00 PM  77.7°F  81°F  3 mph SE  4 mph  16 mph  0.00"  18%  36%  29°F  51°F  29.90"
Tue 02:00 PM  76.5°F  81°F  2 mph S  4 mph  15 mph  0.00"  19%  38%  30°F  52°F  29.92"
Tue 01:00 PM  75.7°F  80°F  2 mph SE  5 mph  14 mph  0.00"  21%  39%  32°F  52°F  29.93"
Tue 12:00 PM  73.9°F  79°F  4 mph SW  5 mph  12 mph  0.00"  20%  41%  29°F  52°F  29.95"
Tue 11:00 AM  72.1°F  77°F  3 mph SE  4 mph  12 mph  0.00"  22%  43%  30°F  52°F  29.96"
Tue 10:00 AM  70.9°F  75°F  5 mph S  4 mph  9 mph  0.00"  22%  46%  29°F  52°F  29.96"
Tue 09:00 AM  67.8°F  73°F  3 mph SE  3 mph  5 mph  0.00"  27%  48%  31°F  52°F  29.95"
Tue 08:00 AM  66.4°F  71°F  3 mph SW  2 mph  3 mph  0.00"  27%  51%  30°F  51°F  29.94"
Tue 07:00 AM  60.1°F  68°F  3 mph NW  2 mph  5 mph  0.00"  35%  52%  31°F  49°F  29.94"
Tue 06:00 AM  59.2°F  67°F  4 mph NW  2 mph  5 mph  0.00"  36%  54%  31°F  49°F  29.91"
Tue 05:00 AM  59.4°F  67°F  2 mph W  2 mph  5 mph  0.00"  33%  54%  29°F  49°F  29.89"
3Tue 04:10 AM  57.9°F  67°F  4 mph W  2 mph  5 mph  ----  33%  54%  28°F  49°F  29.89"
Tue 04:00 AM  58.5°F  67°F  3 mph W  2 mph  6 mph  0.00"  34%  54%  29°F  49°F  29.89"
Tue 03:00 AM  59.2°F  67°F  3 mph NW  2 mph  6 mph  0.00"  31%  54%  27°F  50°F  29.90"
Tue 02:00 AM  59.5°F  67°F  3 mph NW  2 mph  6 mph  0.00"  36%  55%  31°F  50°F  29.90"
Tue 01:00 AM  60.1°F  67°F  4 mph W  2 mph  6 mph  0.00"  28%  55%  25°F  50°F  29.90"
Tue 12:00 AM  60.8°F  68°F  2 mph W  2 mph  3 mph  0.00"  31%  56%  29°F  51°F  29.89"
Mon 11:00 PM  62.1°F  68°F  2 mph W  2 mph  3 mph  0.00"  33%  56%  31°F  51°F  29.88"
Mon 10:00 PM  62.6°F  69°F  3 mph W  2 mph  3 mph  0.00"  35%  55%  33°F  52°F  29.88"
Mon 09:00 PM  63.5°F  71°F  calm  2 mph  none  0.00"  34%  53%  33°F  52°F  29.87"
Mon 08:00 PM  67.3°F  73°F  calm  4 mph  12 mph  0.00"  32%  51%  35°F  53°F  29.85"
Mon 07:00 PM  70.3°F  75°F  5 mph NW  3 mph  12 mph  0.00"  30%  47%  36°F  53°F  29.83"
Mon 06:00 PM  73.2°F  78°F  3 mph NW  3 mph  12 mph  0.00"  32%  41%  40°F  52°F  29.83"
Mon 05:00 PM  76.1°F  81°F  4 mph W  4 mph  12 mph  0.00"  33%  38%  44°F  52°F  29.83"
Mon 04:00 PM  80.2°F  82°F  5 mph S  4 mph  16 mph  0.00"  24%  36%  39°F  51°F  29.83"
Mon 03:00 PM  79.5°F  82°F  5 mph S  4 mph  10 mph  0.00"  23%  36%  37°F  51°F  29.85"
Mon 02:00 PM  79.9°F  82°F  2 mph SW  4 mph  12 mph  0.00"  16%  38%  28°F  52°F  29.86"
Mon 01:00 PM  79.9°F  81°F  8 mph SE  5 mph  12 mph  0.00"  19%  39%  32°F  52°F  29.89"
Mon 12:00 PM  77.4°F  79°F  4 mph SE  5 mph  10 mph  0.00"  21%  40%  33°F  52°F  29.89"
Mon 11:00 AM  75.7°F  78°F  2 mph W  4 mph  14 mph  0.00"  22%  42%  33°F  52°F  29.91"
Mon 10:00 AM  74.8°F  76°F  4 mph S  4 mph  12 mph  0.00"  24%  45%  34°F  52°F  29.91"
Mon 09:00 AM  73.0°F  73°F  2 mph SE  3 mph  8 mph  0.00"  25%  48%  34°F  52°F  29.90"

  1. Current weather data. No green row appears if the current weather data is also the high or low for the current day.
  2. High temperature for the current day.
  3. Low temperature for the current day.

The Beaumont, California weather pages are a service of WeatherCurrents. Cherry Valley is located in northern Riverside County, California, a community of the northern part of Beaumont, along the Interstate 10 highway, in the San Gorgonio pass area, between the communities of Calimesa, Banning.
Copyright ©2019  WeatherCurrents. All rights reserved. - Submit questions and comments - Privacy Policy

This page automatically refreshes every 10 minutes.